Yamachiche, Canada
Current Conditions -  °F | °C
As of 10:00 PM on Saturday 20 Dec 2014 (Local Time) from CYRQ Reporting Station
Overcast Overcast  
Wind Chill:   Ceiling: 1200
Heat Index:   Visibility: 9mi
Dew Point:   Wind: 2mph
Humidity: 92%   Direction: 350°N
Pressure: 30.37"   Gusts: NA
Location:  46.28°N, 72.83°W
Report Text: CYRQ 210300Z AUTO 35002KT 9SM OVC012 M14/M15 A3037 RMK SLP289
Loading
Personal Weather Stations






























Interactive Weather Map New forecast layout! Learn more

10-Day Weather Forecast

Advertisements
Track Severe Weather on mobile